sensor_id;sensor_type;location;lat;lon;timestamp;temperature;humidity
37806;DHT22;25082;50.870;0.022;2022-09-16T00:00:01;20.10;73.60
37806;DHT22;25082;50.870;0.022;2022-09-16T00:02:26;20.10;74.10
37806;DHT22;25082;50.870;0.022;2022-09-16T00:04:52;20.00;73.50
37806;DHT22;25082;50.870;0.022;2022-09-16T00:07:18;20.00;73.50
37806;DHT22;25082;50.870;0.022;2022-09-16T00:09:44;20.00;73.50
37806;DHT22;25082;50.870;0.022;2022-09-16T00:12:10;20.00;73.50
37806;DHT22;25082;50.870;0.022;2022-09-16T00:14:36;20.00;73.50
37806;DHT22;25082;50.870;0.022;2022-09-16T00:17:02;20.00;73.50
37806;DHT22;25082;50.870;0.022;2022-09-16T00:19:28;20.00;73.50
37806;DHT22;25082;50.870;0.022;2022-09-16T00:21:53;20.00;73.50
37806;DHT22;25082;50.870;0.022;2022-09-16T00:24:19;20.00;73.50
37806;DHT22;25082;50.870;0.022;2022-09-16T00:26:45;20.00;73.60
37806;DHT22;25082;50.870;0.022;2022-09-16T00:29:10;20.00;73.50
37806;DHT22;25082;50.870;0.022;2022-09-16T00:31:36;20.00;73.40
37806;DHT22;25082;50.870;0.022;2022-09-16T00:34:02;20.00;73.50
37806;DHT22;25082;50.870;0.022;2022-09-16T00:36:28;20.00;73.40
37806;DHT22;25082;50.870;0.022;2022-09-16T00:38:55;20.00;73.50
37806;DHT22;25082;50.870;0.022;2022-09-16T00:41:26;20.00;73.50
37806;DHT22;25082;50.870;0.022;2022-09-16T00:43:58;20.00;73.40
37806;DHT22;25082;50.870;0.022;2022-09-16T00:49:20;20.00;73.40
37806;DHT22;25082;50.870;0.022;2022-09-16T00:51:48;20.00;73.30
37806;DHT22;25082;50.870;0.022;2022-09-16T00:54:17;20.00;73.40
37806;DHT22;25082;50.870;0.022;2022-09-16T00:56:45;20.00;73.40
37806;DHT22;25082;50.870;0.022;2022-09-16T00:59:16;20.00;73.40
37806;DHT22;25082;50.870;0.022;2022-09-16T01:01:44;20.00;73.30
37806;DHT22;25082;50.870;0.022;2022-09-16T01:04:30;20.00;73.40
37806;DHT22;25082;50.870;0.022;2022-09-16T01:06:57;20.00;73.30
37806;DHT22;25082;50.870;0.022;2022-09-16T01:09:24;20.00;73.40
37806;DHT22;25082;50.870;0.022;2022-09-16T01:11:51;20.00;73.30
37806;DHT22;25082;50.870;0.022;2022-09-16T01:14:17;19.90;73.20
37806;DHT22;25082;50.870;0.022;2022-09-16T01:31:35;19.90;73.10
37806;DHT22;25082;50.870;0.022;2022-09-16T01:47:14;19.90;73.10
37806;DHT22;25082;50.870;0.022;2022-09-16T01:55:03;19.90;73.00
37806;DHT22;25082;50.870;0.022;2022-09-16T02:00:23;19.90;73.10
37806;DHT22;25082;50.870;0.022;2022-09-16T02:05:38;19.90;73.00
37806;DHT22;25082;50.870;0.022;2022-09-16T02:08:08;19.90;73.00
37806;DHT22;25082;50.870;0.022;2022-09-16T02:10:39;19.90;73.00
37806;DHT22;25082;50.870;0.022;2022-09-16T02:13:13;19.90;73.00
37806;DHT22;25082;50.870;0.022;2022-09-16T02:15:43;19.90;73.00
37806;DHT22;25082;50.870;0.022;2022-09-16T02:18:12;19.90;73.00
37806;DHT22;25082;50.870;0.022;2022-09-16T02:20:42;19.90;72.90
37806;DHT22;25082;50.870;0.022;2022-09-16T02:23:14;19.90;73.00
37806;DHT22;25082;50.870;0.022;2022-09-16T02:25:44;19.90;73.00
37806;DHT22;25082;50.870;0.022;2022-09-16T02:28:15;19.90;73.00
37806;DHT22;25082;50.870;0.022;2022-09-16T02:30:46;19.90;72.90
37806;DHT22;25082;50.870;0.022;2022-09-16T02:33:14;19.90;72.90
37806;DHT22;25082;50.870;0.022;2022-09-16T02:35:43;19.90;72.90
37806;DHT22;25082;50.870;0.022;2022-09-16T02:38:22;19.80;72.90
37806;DHT22;25082;50.870;0.022;2022-09-16T02:40:55;19.90;73.00
37806;DHT22;25082;50.870;0.022;2022-09-16T02:43:22;19.90;72.90
37806;DHT22;25082;50.870;0.022;2022-09-16T02:48:30;19.90;72.90
37806;DHT22;25082;50.870;0.022;2022-09-16T02:51:11;19.90;73.40
37806;DHT22;25082;50.870;0.022;2022-09-16T02:54:01;19.80;72.80
37806;DHT22;25082;50.870;0.022;2022-09-16T02:56:35;19.90;72.80
37806;DHT22;25082;50.870;0.022;2022-09-16T02:59:05;19.90;72.80
37806;DHT22;25082;50.870;0.022;2022-09-16T03:01:39;19.90;72.80
37806;DHT22;25082;50.870;0.022;2022-09-16T03:04:09;19.90;72.80
37806;DHT22;25082;50.870;0.022;2022-09-16T03:06:36;19.80;72.80
37806;DHT22;25082;50.870;0.022;2022-09-16T03:09:06;19.90;72.80
37806;DHT22;25082;50.870;0.022;2022-09-16T03:23:08;19.80;72.60
37806;DHT22;25082;50.870;0.022;2022-09-16T03:31:09;19.80;72.50
37806;DHT22;25082;50.870;0.022;2022-09-16T03:36:24;19.80;72.60
37806;DHT22;25082;50.870;0.022;2022-09-16T03:38:52;19.80;72.60
37806;DHT22;25082;50.870;0.022;2022-09-16T03:41:19;19.80;72.60
37806;DHT22;25082;50.870;0.022;2022-09-16T03:43:55;19.80;72.60
37806;DHT22;25082;50.870;0.022;2022-09-16T03:46:22;19.80;72.50
37806;DHT22;25082;50.870;0.022;2022-09-16T03:48:48;19.80;72.60
37806;DHT22;25082;50.870;0.022;2022-09-16T03:51:14;19.80;72.50
37806;DHT22;25082;50.870;0.022;2022-09-16T03:53:40;19.80;72.50
37806;DHT22;25082;50.870;0.022;2022-09-16T03:56:06;19.80;72.50
37806;DHT22;25082;50.870;0.022;2022-09-16T03:58:32;19.80;72.60
37806;DHT22;25082;50.870;0.022;2022-09-16T04:00:58;19.80;72.50
37806;DHT22;25082;50.870;0.022;2022-09-16T04:03:23;19.80;72.50
37806;DHT22;25082;50.870;0.022;2022-09-16T04:05:53;19.80;72.60
37806;DHT22;25082;50.870;0.022;2022-09-16T04:08:19;19.80;72.50
37806;DHT22;25082;50.870;0.022;2022-09-16T04:10:55;19.80;72.50
37806;DHT22;25082;50.870;0.022;2022-09-16T04:13:21;19.80;72.40
37806;DHT22;25082;50.870;0.022;2022-09-16T04:15:47;19.80;72.40
37806;DHT22;25082;50.870;0.022;2022-09-16T04:18:13;19.80;72.50
37806;DHT22;25082;50.870;0.022;2022-09-16T04:20:38;19.80;72.50
37806;DHT22;25082;50.870;0.022;2022-09-16T04:23:04;19.80;72.50
37806;DHT22;25082;50.870;0.022;2022-09-16T04:25:30;19.80;72.50
37806;DHT22;25082;50.870;0.022;2022-09-16T04:27:56;19.80;72.50
37806;DHT22;25082;50.870;0.022;2022-09-16T04:30:22;19.80;72.40
37806;DHT22;25082;50.870;0.022;2022-09-16T04:32:52;19.80;72.40
37806;DHT22;25082;50.870;0.022;2022-09-16T04:35:18;19.80;72.40
37806;DHT22;25082;50.870;0.022;2022-09-16T04:37:44;19.70;72.50
37806;DHT22;25082;50.870;0.022;2022-09-16T04:40:10;19.70;72.30
37806;DHT22;25082;50.870;0.022;2022-09-16T04:42:36;19.70;72.30
37806;DHT22;25082;50.870;0.022;2022-09-16T04:45:03;19.70;72.30
37806;DHT22;25082;50.870;0.022;2022-09-16T04:47:29;19.70;72.60
37806;DHT22;25082;50.870;0.022;2022-09-16T04:49:54;19.70;72.30
37806;DHT22;25082;50.870;0.022;2022-09-16T04:52:20;19.70;72.30
37806;DHT22;25082;50.870;0.022;2022-09-16T04:54:46;19.70;72.30
37806;DHT22;25082;50.870;0.022;2022-09-16T04:57:12;19.70;72.30
37806;DHT22;25082;50.870;0.022;2022-09-16T04:59:37;19.70;72.30
37806;DHT22;25082;50.870;0.022;2022-09-16T05:02:03;19.70;72.30
37806;DHT22;25082;50.870;0.022;2022-09-16T05:04:29;19.70;72.20
37806;DHT22;25082;50.870;0.022;2022-09-16T05:06:54;19.70;72.20
37806;DHT22;25082;50.870;0.022;2022-09-16T05:09:20;19.70;72.20
37806;DHT22;25082;50.870;0.022;2022-09-16T05:11:47;19.70;72.20
37806;DHT22;25082;50.870;0.022;2022-09-16T05:14:15;19.70;72.20
37806;DHT22;25082;50.870;0.022;2022-09-16T05:16:42;19.70;72.20
37806;DHT22;25082;50.870;0.022;2022-09-16T05:19:10;19.70;72.30
37806;DHT22;25082;50.870;0.022;2022-09-16T05:21:37;19.70;72.30
37806;DHT22;25082;50.870;0.022;2022-09-16T05:24:05;19.70;72.20
37806;DHT22;25082;50.870;0.022;2022-09-16T05:26:36;19.60;72.20
37806;DHT22;25082;50.870;0.022;2022-09-16T05:29:05;19.70;72.30
37806;DHT22;25082;50.870;0.022;2022-09-16T05:31:33;19.70;72.20
37806;DHT22;25082;50.870;0.022;2022-09-16T05:34:04;19.60;72.20
37806;DHT22;25082;50.870;0.022;2022-09-16T05:36:32;19.60;72.10
37806;DHT22;25082;50.870;0.022;2022-09-16T05:39:01;19.70;72.20
37806;DHT22;25082;50.870;0.022;2022-09-16T05:41:26;19.60;72.10
37806;DHT22;25082;50.870;0.022;2022-09-16T05:43:52;19.60;72.10
37806;DHT22;25082;50.870;0.022;2022-09-16T05:46:22;19.70;72.10
37806;DHT22;25082;50.870;0.022;2022-09-16T05:48:48;19.60;72.10
37806;DHT22;25082;50.870;0.022;2022-09-16T05:51:16;19.60;72.10
37806;DHT22;25082;50.870;0.022;2022-09-16T05:53:43;19.60;72.10
37806;DHT22;25082;50.870;0.022;2022-09-16T05:56:12;19.60;72.00
37806;DHT22;25082;50.870;0.022;2022-09-16T05:58:39;19.60;72.10
37806;DHT22;25082;50.870;0.022;2022-09-16T06:01:10;19.60;72.10
37806;DHT22;25082;50.870;0.022;2022-09-16T06:03:37;19.60;72.10
37806;DHT22;25082;50.870;0.022;2022-09-16T06:06:30;19.60;72.10
37806;DHT22;25082;50.870;0.022;2022-09-16T06:08:57;19.60;72.00
37806;DHT22;25082;50.870;0.022;2022-09-16T06:11:25;19.60;72.10
37806;DHT22;25082;50.870;0.022;2022-09-16T06:13:55;19.60;72.00
37806;DHT22;25082;50.870;0.022;2022-09-16T06:16:22;19.60;72.00
37806;DHT22;25082;50.870;0.022;2022-09-16T06:18:50;19.60;72.10
37806;DHT22;25082;50.870;0.022;2022-09-16T06:21:16;19.60;72.60
37806;DHT22;25082;50.870;0.022;2022-09-16T06:23:42;19.60;72.10
37806;DHT22;25082;50.870;0.022;2022-09-16T06:26:16;19.60;72.00
37806;DHT22;25082;50.870;0.022;2022-09-16T06:28:42;19.60;72.10
37806;DHT22;25082;50.870;0.022;2022-09-16T06:31:13;19.60;72.10
37806;DHT22;25082;50.870;0.022;2022-09-16T06:33:40;19.60;72.10
37806;DHT22;25082;50.870;0.022;2022-09-16T06:36:14;19.60;72.10
37806;DHT22;25082;50.870;0.022;2022-09-16T06:38:41;19.60;72.10
37806;DHT22;25082;50.870;0.022;2022-09-16T06:41:08;19.60;72.10
37806;DHT22;25082;50.870;0.022;2022-09-16T06:43:35;19.60;72.00
37806;DHT22;25082;50.870;0.022;2022-09-16T06:46:05;19.60;72.10
37806;DHT22;25082;50.870;0.022;2022-09-16T06:48:34;19.60;72.00
37806;DHT22;25082;50.870;0.022;2022-09-16T06:51:03;19.60;72.00
37806;DHT22;25082;50.870;0.022;2022-09-16T06:53:30;19.60;72.00
37806;DHT22;25082;50.870;0.022;2022-09-16T06:56:07;19.60;72.10
37806;DHT22;25082;50.870;0.022;2022-09-16T06:58:36;19.60;72.00
37806;DHT22;25082;50.870;0.022;2022-09-16T07:01:10;19.60;72.10
37806;DHT22;25082;50.870;0.022;2022-09-16T07:03:37;19.60;72.00
37806;DHT22;25082;50.870;0.022;2022-09-16T07:06:03;19.60;72.00
37806;DHT22;25082;50.870;0.022;2022-09-16T07:08:30;19.60;72.00
37806;DHT22;25082;50.870;0.022;2022-09-16T07:11:09;19.60;72.00
37806;DHT22;25082;50.870;0.022;2022-09-16T07:13:35;19.60;72.10
37806;DHT22;25082;50.870;0.022;2022-09-16T07:16:09;19.60;72.10
37806;DHT22;25082;50.870;0.022;2022-09-16T07:18:35;19.50;72.00
37806;DHT22;25082;50.870;0.022;2022-09-16T07:21:02;19.60;72.10
37806;DHT22;25082;50.870;0.022;2022-09-16T07:23:33;19.60;72.10
37806;DHT22;25082;50.870;0.022;2022-09-16T07:28:36;19.60;72.10
37806;DHT22;25082;50.870;0.022;2022-09-16T07:31:10;19.50;72.00
37806;DHT22;25082;50.870;0.022;2022-09-16T07:33:38;19.50;72.00
37806;DHT22;25082;50.870;0.022;2022-09-16T07:36:06;19.50;72.00
37806;DHT22;25082;50.870;0.022;2022-09-16T07:38:32;19.50;72.00
37806;DHT22;25082;50.870;0.022;2022-09-16T07:43:30;19.50;72.00
37806;DHT22;25082;50.870;0.022;2022-09-16T07:45:57;19.50;72.10
37806;DHT22;25082;50.870;0.022;2022-09-16T07:48:23;19.60;72.10
37806;DHT22;25082;50.870;0.022;2022-09-16T07:50:59;19.50;72.00
37806;DHT22;25082;50.870;0.022;2022-09-16T07:53:26;19.50;72.00
37806;DHT22;25082;50.870;0.022;2022-09-16T07:56:15;19.60;72.10
37806;DHT22;25082;50.870;0.022;2022-09-16T07:58:40;19.60;72.10
37806;DHT22;25082;50.870;0.022;2022-09-16T08:01:07;19.60;72.10
37806;DHT22;25082;50.870;0.022;2022-09-16T08:03:34;19.60;72.10
37806;DHT22;25082;50.870;0.022;2022-09-16T08:06:02;19.70;72.20
37806;DHT22;25082;50.870;0.022;2022-09-16T08:08:29;19.70;72.20
37806;DHT22;25082;50.870;0.022;2022-09-16T08:10:56;19.70;72.20
37806;DHT22;25082;50.870;0.022;2022-09-16T08:13:22;19.70;72.20
37806;DHT22;25082;50.870;0.022;2022-09-16T08:15:48;19.70;72.30
37806;DHT22;25082;50.870;0.022;2022-09-16T08:18:14;19.70;72.30
37806;DHT22;25082;50.870;0.022;2022-09-16T08:20:40;19.70;72.40
37806;DHT22;25082;50.870;0.022;2022-09-16T08:23:06;19.70;72.40
37806;DHT22;25082;50.870;0.022;2022-09-16T08:25:32;19.70;72.40
37806;DHT22;25082;50.870;0.022;2022-09-16T08:27:57;19.80;72.50
37806;DHT22;25082;50.870;0.022;2022-09-16T08:30:23;19.80;72.50
37806;DHT22;25082;50.870;0.022;2022-09-16T08:32:58;19.80;72.50
37806;DHT22;25082;50.870;0.022;2022-09-16T08:35:24;19.80;72.60
37806;DHT22;25082;50.870;0.022;2022-09-16T08:37:51;19.80;72.70
37806;DHT22;25082;50.870;0.022;2022-09-16T08:40:20;19.80;72.60
37806;DHT22;25082;50.870;0.022;2022-09-16T08:42:55;19.80;72.60
37806;DHT22;25082;50.870;0.022;2022-09-16T08:51:14;19.80;72.70
37806;DHT22;25082;50.870;0.022;2022-09-16T08:56:18;19.80;72.70
37806;DHT22;25082;50.870;0.022;2022-09-16T08:58:46;19.80;72.70
37806;DHT22;25082;50.870;0.022;2022-09-16T09:01:43;19.90;72.80
37806;DHT22;25082;50.870;0.022;2022-09-16T09:04:12;19.90;72.80
37806;DHT22;25082;50.870;0.022;2022-09-16T09:09:26;19.90;72.80
37806;DHT22;25082;50.870;0.022;2022-09-16T09:18:12;19.90;72.90
37806;DHT22;25082;50.870;0.022;2022-09-16T09:20:58;19.90;72.90
37806;DHT22;25082;50.870;0.022;2022-09-16T09:31:56;19.90;73.00
37806;DHT22;25082;50.870;0.022;2022-09-16T09:42:46;20.00;73.10
37806;DHT22;25082;50.870;0.022;2022-09-16T09:45:22;20.00;73.10
37806;DHT22;25082;50.870;0.022;2022-09-16T09:50:41;20.00;73.20
37806;DHT22;25082;50.870;0.022;2022-09-16T09:55:39;20.00;73.20
37806;DHT22;25082;50.870;0.022;2022-09-16T10:00:43;20.00;73.30
37806;DHT22;25082;50.870;0.022;2022-09-16T10:03:14;20.00;73.30
37806;DHT22;25082;50.870;0.022;2022-09-16T10:05:43;20.00;73.30
37806;DHT22;25082;50.870;0.022;2022-09-16T10:08:12;20.00;73.30
37806;DHT22;25082;50.870;0.022;2022-09-16T10:10:46;20.10;73.40
37806;DHT22;25082;50.870;0.022;2022-09-16T10:13:13;20.10;73.30
37806;DHT22;25082;50.870;0.022;2022-09-16T10:15:40;20.10;73.30
37806;DHT22;25082;50.870;0.022;2022-09-16T10:18:21;20.10;73.40
37806;DHT22;25082;50.870;0.022;2022-09-16T10:23:24;20.10;73.40
37806;DHT22;25082;50.870;0.022;2022-09-16T10:26:03;20.10;73.40
37806;DHT22;25082;50.870;0.022;2022-09-16T10:28:29;20.10;73.40
37806;DHT22;25082;50.870;0.022;2022-09-16T10:30:57;20.10;73.40
37806;DHT22;25082;50.870;0.022;2022-09-16T10:33:24;20.10;73.40
37806;DHT22;25082;50.870;0.022;2022-09-16T10:35:59;20.10;73.40
37806;DHT22;25082;50.870;0.022;2022-09-16T10:38:41;20.10;73.40
37806;DHT22;25082;50.870;0.022;2022-09-16T10:41:14;20.10;73.40
37806;DHT22;25082;50.870;0.022;2022-09-16T10:43:51;20.20;73.50
37806;DHT22;25082;50.870;0.022;2022-09-16T10:46:17;20.20;73.50
37806;DHT22;25082;50.870;0.022;2022-09-16T10:48:45;20.20;73.50
37806;DHT22;25082;50.870;0.022;2022-09-16T10:51:28;20.20;73.50
37806;DHT22;25082;50.870;0.022;2022-09-16T10:53:57;20.20;73.50
37806;DHT22;25082;50.870;0.022;2022-09-16T10:56:25;20.20;73.40
37806;DHT22;25082;50.870;0.022;2022-09-16T11:07:29;20.20;73.50
37806;DHT22;25082;50.870;0.022;2022-09-16T11:10:24;20.20;73.50
37806;DHT22;25082;50.870;0.022;2022-09-16T11:29:27;20.20;73.50
37806;DHT22;25082;50.870;0.022;2022-09-16T11:35:06;20.30;73.50
37806;DHT22;25082;50.870;0.022;2022-09-16T11:40:36;20.30;73.60
37806;DHT22;25082;50.870;0.022;2022-09-16T11:46:22;20.30;73.60
37806;DHT22;25082;50.870;0.022;2022-09-16T11:57:34;20.30;73.50
37806;DHT22;25082;50.870;0.022;2022-09-16T12:00:11;20.30;73.50
37806;DHT22;25082;50.870;0.022;2022-09-16T12:03:11;20.30;73.50
37806;DHT22;25082;50.870;0.022;2022-09-16T12:05:51;20.30;73.40
37806;DHT22;25082;50.870;0.022;2022-09-16T12:08:21;20.40;73.50
37806;DHT22;25082;50.870;0.022;2022-09-16T12:11:02;20.40;73.50
37806;DHT22;25082;50.870;0.022;2022-09-16T12:13:40;20.40;73.40
37806;DHT22;25082;50.870;0.022;2022-09-16T12:16:12;20.40;73.40
37806;DHT22;25082;50.870;0.022;2022-09-16T12:18:43;20.40;73.40
37806;DHT22;25082;50.870;0.022;2022-09-16T12:24:03;20.40;73.40
37806;DHT22;25082;50.870;0.022;2022-09-16T12:26:44;20.40;73.40
37806;DHT22;25082;50.870;0.022;2022-09-16T12:32:13;20.40;73.30
37806;DHT22;25082;50.870;0.022;2022-09-16T12:34:54;20.40;73.30
37806;DHT22;25082;50.870;0.022;2022-09-16T12:39:51;20.50;73.40
37806;DHT22;25082;50.870;0.022;2022-09-16T12:51:17;20.40;73.30
37806;DHT22;25082;50.870;0.022;2022-09-16T12:59:26;20.40;73.30
37806;DHT22;25082;50.870;0.022;2022-09-16T13:02:01;20.50;73.30
37806;DHT22;25082;50.870;0.022;2022-09-16T13:04:37;20.40;73.20
37806;DHT22;25082;50.870;0.022;2022-09-16T13:07:04;20.40;73.20
37806;DHT22;25082;50.870;0.022;2022-09-16T13:09:34;20.40;73.20
37806;DHT22;25082;50.870;0.022;2022-09-16T13:12:24;20.50;73.20
37806;DHT22;25082;50.870;0.022;2022-09-16T13:14:56;20.40;73.10
37806;DHT22;25082;50.870;0.022;2022-09-16T13:17:26;20.40;73.10
37806;DHT22;25082;50.870;0.022;2022-09-16T13:19:53;20.40;73.00
37806;DHT22;25082;50.870;0.022;2022-09-16T13:22:21;20.40;73.00
37806;DHT22;25082;50.870;0.022;2022-09-16T13:24:56;20.40;73.00
37806;DHT22;25082;50.870;0.022;2022-09-16T13:27:51;20.40;73.00
37806;DHT22;25082;50.870;0.022;2022-09-16T13:30:24;20.40;73.00
37806;DHT22;25082;50.870;0.022;2022-09-16T13:37:46;20.40;72.90
37806;DHT22;25082;50.870;0.022;2022-09-16T13:40:39;20.40;72.90
37806;DHT22;25082;50.870;0.022;2022-09-16T13:45:36;20.40;72.70
37806;DHT22;25082;50.870;0.022;2022-09-16T13:48:18;20.40;72.80
37806;DHT22;25082;50.870;0.022;2022-09-16T13:50:57;20.50;72.90
37806;DHT22;25082;50.870;0.022;2022-09-16T13:53:35;20.40;72.80
37806;DHT22;25082;50.870;0.022;2022-09-16T13:59:21;20.30;68.40
37806;DHT22;25082;50.870;0.022;2022-09-16T14:07:24;20.40;71.00
37806;DHT22;25082;50.870;0.022;2022-09-16T14:15:23;20.40;71.40
37806;DHT22;25082;50.870;0.022;2022-09-16T14:17:53;20.40;72.00
37806;DHT22;25082;50.870;0.022;2022-09-16T14:20:21;20.40;71.50
37806;DHT22;25082;50.870;0.022;2022-09-16T14:23:03;20.40;71.60
37806;DHT22;25082;50.870;0.022;2022-09-16T14:25:33;20.40;71.50
37806;DHT22;25082;50.870;0.022;2022-09-16T14:28:16;20.30;71.50
37806;DHT22;25082;50.870;0.022;2022-09-16T14:31:00;20.40;71.70
37806;DHT22;25082;50.870;0.022;2022-09-16T14:33:36;20.40;71.80
37806;DHT22;25082;50.870;0.022;2022-09-16T14:36:15;20.40;72.00
37806;DHT22;25082;50.870;0.022;2022-09-16T14:38:52;20.40;71.90
37806;DHT22;25082;50.870;0.022;2022-09-16T14:41:29;20.40;71.70
37806;DHT22;25082;50.870;0.022;2022-09-16T14:44:09;20.40;71.90
37806;DHT22;25082;50.870;0.022;2022-09-16T14:47:05;20.40;71.70
37806;DHT22;25082;50.870;0.022;2022-09-16T14:49:36;20.40;71.70
37806;DHT22;25082;50.870;0.022;2022-09-16T14:52:02;20.40;71.90
37806;DHT22;25082;50.870;0.022;2022-09-16T14:54:29;20.40;71.90
37806;DHT22;25082;50.870;0.022;2022-09-16T14:57:05;20.40;71.90
37806;DHT22;25082;50.870;0.022;2022-09-16T14:59:40;20.40;71.90
37806;DHT22;25082;50.870;0.022;2022-09-16T15:02:27;20.40;72.00
37806;DHT22;25082;50.870;0.022;2022-09-16T15:05:03;20.40;71.90
37806;DHT22;25082;50.870;0.022;2022-09-16T15:07:37;20.40;72.00
37806;DHT22;25082;50.870;0.022;2022-09-16T15:10:20;20.40;72.10
37806;DHT22;25082;50.870;0.022;2022-09-16T15:13:03;20.40;72.20
37806;DHT22;25082;50.870;0.022;2022-09-16T15:15:32;20.40;72.20
37806;DHT22;25082;50.870;0.022;2022-09-16T15:18:11;20.40;72.00
37806;DHT22;25082;50.870;0.022;2022-09-16T15:20:55;20.40;72.00
37806;DHT22;25082;50.870;0.022;2022-09-16T15:23:24;20.40;72.00
37806;DHT22;25082;50.870;0.022;2022-09-16T15:25:55;20.40;72.00
37806;DHT22;25082;50.870;0.022;2022-09-16T15:28:22;20.40;72.00
37806;DHT22;25082;50.870;0.022;2022-09-16T15:30:50;20.50;72.10
37806;DHT22;25082;50.870;0.022;2022-09-16T15:33:33;20.40;72.10
37806;DHT22;25082;50.870;0.022;2022-09-16T15:36:00;20.40;72.10
37806;DHT22;25082;50.870;0.022;2022-09-16T15:38:27;20.40;72.00
37806;DHT22;25082;50.870;0.022;2022-09-16T15:41:03;20.40;72.10
37806;DHT22;25082;50.870;0.022;2022-09-16T15:43:41;20.40;72.20
37806;DHT22;25082;50.870;0.022;2022-09-16T15:46:14;20.40;72.20
37806;DHT22;25082;50.870;0.022;2022-09-16T15:48:49;20.40;72.10
37806;DHT22;25082;50.870;0.022;2022-09-16T15:51:28;20.40;72.00
37806;DHT22;25082;50.870;0.022;2022-09-16T15:57:04;20.40;72.20
37806;DHT22;25082;50.870;0.022;2022-09-16T15:59:40;20.40;72.20
37806;DHT22;25082;50.870;0.022;2022-09-16T16:02:24;20.40;72.10
37806;DHT22;25082;50.870;0.022;2022-09-16T16:04:52;20.40;72.20
37806;DHT22;25082;50.870;0.022;2022-09-16T16:07:45;20.40;72.20
37806;DHT22;25082;50.870;0.022;2022-09-16T16:10:17;20.40;72.10
37806;DHT22;25082;50.870;0.022;2022-09-16T16:12:44;20.40;72.00
37806;DHT22;25082;50.870;0.022;2022-09-16T16:15:18;20.40;71.90
37806;DHT22;25082;50.870;0.022;2022-09-16T16:17:46;20.40;71.80
37806;DHT22;25082;50.870;0.022;2022-09-16T16:20:13;20.40;71.80
37806;DHT22;25082;50.870;0.022;2022-09-16T16:22:39;20.40;71.90
37806;DHT22;25082;50.870;0.022;2022-09-16T16:25:05;20.40;72.00
37806;DHT22;25082;50.870;0.022;2022-09-16T16:27:32;20.40;71.90
37806;DHT22;25082;50.870;0.022;2022-09-16T16:29:58;20.40;72.10
37806;DHT22;25082;50.870;0.022;2022-09-16T16:32:24;20.40;72.20
37806;DHT22;25082;50.870;0.022;2022-09-16T16:34:50;20.40;72.20
37806;DHT22;25082;50.870;0.022;2022-09-16T16:37:17;20.40;72.10
37806;DHT22;25082;50.870;0.022;2022-09-16T16:39:43;20.40;72.10
37806;DHT22;25082;50.870;0.022;2022-09-16T16:42:13;20.40;72.00
37806;DHT22;25082;50.870;0.022;2022-09-16T16:44:40;20.40;71.80
37806;DHT22;25082;50.870;0.022;2022-09-16T16:47:06;20.40;72.40
37806;DHT22;25082;50.870;0.022;2022-09-16T16:49:33;20.30;71.80
37806;DHT22;25082;50.870;0.022;2022-09-16T16:51:59;20.30;71.70
37806;DHT22;25082;50.870;0.022;2022-09-16T16:54:26;20.30;71.80
37806;DHT22;25082;50.870;0.022;2022-09-16T16:56:53;20.30;71.90
37806;DHT22;25082;50.870;0.022;2022-09-16T16:59:19;20.30;72.00
37806;DHT22;25082;50.870;0.022;2022-09-16T17:01:46;20.30;71.90
37806;DHT22;25082;50.870;0.022;2022-09-16T17:04:12;20.30;71.70
37806;DHT22;25082;50.870;0.022;2022-09-16T17:06:38;20.30;71.70
37806;DHT22;25082;50.870;0.022;2022-09-16T17:09:05;20.30;71.70
37806;DHT22;25082;50.870;0.022;2022-09-16T17:11:32;20.30;71.90
37806;DHT22;25082;50.870;0.022;2022-09-16T17:14:03;20.30;71.90
37806;DHT22;25082;50.870;0.022;2022-09-16T17:16:31;20.30;71.90
37806;DHT22;25082;50.870;0.022;2022-09-16T17:18:58;20.30;71.90
37806;DHT22;25082;50.870;0.022;2022-09-16T17:21:29;20.30;71.70
37806;DHT22;25082;50.870;0.022;2022-09-16T17:23:55;20.30;71.70
37806;DHT22;25082;50.870;0.022;2022-09-16T17:26:22;20.30;71.80
37806;DHT22;25082;50.870;0.022;2022-09-16T17:28:50;20.30;71.70
37806;DHT22;25082;50.870;0.022;2022-09-16T17:31:21;20.30;71.70
37806;DHT22;25082;50.870;0.022;2022-09-16T17:33:51;20.30;71.70
37806;DHT22;25082;50.870;0.022;2022-09-16T17:36:17;20.30;71.70
37806;DHT22;25082;50.870;0.022;2022-09-16T17:38:45;20.30;71.80
37806;DHT22;25082;50.870;0.022;2022-09-16T17:41:13;20.20;71.50
37806;DHT22;25082;50.870;0.022;2022-09-16T17:43:40;20.30;71.70
37806;DHT22;25082;50.870;0.022;2022-09-16T17:46:11;20.30;71.50
37806;DHT22;25082;50.870;0.022;2022-09-16T17:48:37;20.30;71.50
37806;DHT22;25082;50.870;0.022;2022-09-16T17:51:04;20.30;71.50
37806;DHT22;25082;50.870;0.022;2022-09-16T17:53:30;20.30;71.50
37806;DHT22;25082;50.870;0.022;2022-09-16T17:56:05;20.30;71.60
37806;DHT22;25082;50.870;0.022;2022-09-16T17:58:32;20.20;71.50
37806;DHT22;25082;50.870;0.022;2022-09-16T18:01:06;20.20;71.30
37806;DHT22;25082;50.870;0.022;2022-09-16T18:03:33;20.20;71.40
37806;DHT22;25082;50.870;0.022;2022-09-16T18:06:11;20.20;71.30
37806;DHT22;25082;50.870;0.022;2022-09-16T18:08:39;20.20;71.10
37806;DHT22;25082;50.870;0.022;2022-09-16T18:11:06;20.20;71.10
37806;DHT22;25082;50.870;0.022;2022-09-16T18:13:32;20.20;71.10
37806;DHT22;25082;50.870;0.022;2022-09-16T18:16:17;20.20;71.30
37806;DHT22;25082;50.870;0.022;2022-09-16T18:18:44;20.20;71.30
37806;DHT22;25082;50.870;0.022;2022-09-16T18:21:12;20.20;71.10
37806;DHT22;25082;50.870;0.022;2022-09-16T18:23:40;20.20;71.00
37806;DHT22;25082;50.870;0.022;2022-09-16T18:26:13;20.20;71.20
37806;DHT22;25082;50.870;0.022;2022-09-16T18:28:42;20.20;71.00
37806;DHT22;25082;50.870;0.022;2022-09-16T18:31:10;20.20;71.70
37806;DHT22;25082;50.870;0.022;2022-09-16T18:33:37;20.20;70.90
37806;DHT22;25082;50.870;0.022;2022-09-16T18:36:05;20.20;71.10
37806;DHT22;25082;50.870;0.022;2022-09-16T18:38:32;20.20;70.90
37806;DHT22;25082;50.870;0.022;2022-09-16T18:41:18;20.20;71.00
37806;DHT22;25082;50.870;0.022;2022-09-16T18:43:46;20.20;71.10
37806;DHT22;25082;50.870;0.022;2022-09-16T18:46:21;20.20;70.80
37806;DHT22;25082;50.870;0.022;2022-09-16T18:48:48;20.20;70.90
37806;DHT22;25082;50.870;0.022;2022-09-16T18:51:16;20.10;70.70
37806;DHT22;25082;50.870;0.022;2022-09-16T18:53:41;20.10;70.60
37806;DHT22;25082;50.870;0.022;2022-09-16T18:56:18;20.10;70.70
37806;DHT22;25082;50.870;0.022;2022-09-16T18:58:44;20.10;70.70
37806;DHT22;25082;50.870;0.022;2022-09-16T19:01:30;20.10;70.60
37806;DHT22;25082;50.870;0.022;2022-09-16T19:03:58;20.10;70.50
37806;DHT22;25082;50.870;0.022;2022-09-16T19:06:29;20.10;70.50
37806;DHT22;25082;50.870;0.022;2022-09-16T19:08:56;20.10;70.60
37806;DHT22;25082;50.870;0.022;2022-09-16T19:11:22;20.10;70.60
37806;DHT22;25082;50.870;0.022;2022-09-16T19:13:48;20.10;70.50